sensor_id;sensor_type;location;lat;lon;timestamp;P1;durP1;ratioP1;P2;durP2;ratioP2
11334;SDS011;5722;42.620;23.374;2023-06-14T00:00:16;13.75;;;11.82;;
11334;SDS011;5722;42.620;23.374;2023-06-14T00:02:46;14.70;;;12.10;;
11334;SDS011;5722;42.620;23.374;2023-06-14T00:05:15;13.02;;;11.63;;
11334;SDS011;5722;42.620;23.374;2023-06-14T00:07:42;13.80;;;12.07;;
11334;SDS011;5722;42.620;23.374;2023-06-14T00:10:10;16.63;;;12.50;;
11334;SDS011;5722;42.620;23.374;2023-06-14T00:12:40;13.07;;;11.60;;
11334;SDS011;5722;42.620;23.374;2023-06-14T00:15:08;13.20;;;11.80;;
11334;SDS011;5722;42.620;23.374;2023-06-14T00:17:39;13.95;;;12.10;;
11334;SDS011;5722;42.620;23.374;2023-06-14T00:20:08;12.57;;;11.27;;
11334;SDS011;5722;42.620;23.374;2023-06-14T00:22:36;15.77;;;12.60;;
11334;SDS011;5722;42.620;23.374;2023-06-14T00:25:04;15.73;;;12.20;;
11334;SDS011;5722;42.620;23.374;2023-06-14T00:27:32;13.18;;;11.70;;
11334;SDS011;5722;42.620;23.374;2023-06-14T00:30:00;13.20;;;11.90;;
11334;SDS011;5722;42.620;23.374;2023-06-14T00:32:28;14.68;;;12.75;;
11334;SDS011;5722;42.620;23.374;2023-06-14T00:34:57;13.98;;;12.15;;
11334;SDS011;5722;42.620;23.374;2023-06-14T00:37:24;13.70;;;11.57;;
11334;SDS011;5722;42.620;23.374;2023-06-14T00:39:51;14.90;;;12.57;;
11334;SDS011;5722;42.620;23.374;2023-06-14T00:42:25;15.88;;;11.82;;
11334;SDS011;5722;42.620;23.374;2023-06-14T00:44:52;14.10;;;12.27;;
11334;SDS011;5722;42.620;23.374;2023-06-14T00:47:20;15.95;;;13.10;;
11334;SDS011;5722;42.620;23.374;2023-06-14T00:49:47;16.88;;;12.82;;
11334;SDS011;5722;42.620;23.374;2023-06-14T00:52:17;19.10;;;14.10;;
11334;SDS011;5722;42.620;23.374;2023-06-14T00:54:45;18.25;;;13.27;;
11334;SDS011;5722;42.620;23.374;2023-06-14T00:57:13;16.08;;;11.90;;
11334;SDS011;5722;42.620;23.374;2023-06-14T00:59:42;13.25;;;11.85;;
11334;SDS011;5722;42.620;23.374;2023-06-14T01:02:11;13.00;;;11.60;;
11334;SDS011;5722;42.620;23.374;2023-06-14T01:04:41;12.48;;;10.68;;
11334;SDS011;5722;42.620;23.374;2023-06-14T01:07:11;13.95;;;10.77;;
11334;SDS011;5722;42.620;23.374;2023-06-14T01:09:54;15.27;;;10.93;;
11334;SDS011;5722;42.620;23.374;2023-06-14T01:12:31;11.43;;;10.23;;
11334;SDS011;5722;42.620;23.374;2023-06-14T01:15:06;14.40;;;10.43;;
11334;SDS011;5722;42.620;23.374;2023-06-14T01:17:34;13.73;;;10.40;;
11334;SDS011;5722;42.620;23.374;2023-06-14T01:20:09;10.93;;;9.80;;
11334;SDS011;5722;42.620;23.374;2023-06-14T01:22:47;11.52;;;9.23;;
11334;SDS011;5722;42.620;23.374;2023-06-14T01:25:17;10.90;;;9.27;;
11334;SDS011;5722;42.620;23.374;2023-06-14T01:27:46;11.35;;;9.40;;
11334;SDS011;5722;42.620;23.374;2023-06-14T01:30:15;13.07;;;9.25;;
11334;SDS011;5722;42.620;23.374;2023-06-14T01:32:45;12.43;;;9.60;;
11334;SDS011;5722;42.620;23.374;2023-06-14T01:35:13;9.93;;;9.02;;
11334;SDS011;5722;42.620;23.374;2023-06-14T01:37:40;9.68;;;8.88;;
11334;SDS011;5722;42.620;23.374;2023-06-14T01:40:11;13.23;;;9.32;;
11334;SDS011;5722;42.620;23.374;2023-06-14T01:42:40;10.88;;;9.35;;
11334;SDS011;5722;42.620;23.374;2023-06-14T01:45:09;11.55;;;9.13;;
11334;SDS011;5722;42.620;23.374;2023-06-14T01:47:38;10.48;;;9.43;;
11334;SDS011;5722;42.620;23.374;2023-06-14T01:50:06;15.35;;;8.90;;
11334;SDS011;5722;42.620;23.374;2023-06-14T01:52:34;10.02;;;8.38;;
11334;SDS011;5722;42.620;23.374;2023-06-14T01:55:04;11.77;;;8.65;;
11334;SDS011;5722;42.620;23.374;2023-06-14T01:57:35;10.93;;;9.27;;
11334;SDS011;5722;42.620;23.374;2023-06-14T02:00:03;9.27;;;8.25;;
11334;SDS011;5722;42.620;23.374;2023-06-14T02:02:37;9.68;;;8.48;;
11334;SDS011;5722;42.620;23.374;2023-06-14T02:05:05;9.05;;;8.07;;
11334;SDS011;5722;42.620;23.374;2023-06-14T02:07:34;9.45;;;8.43;;
11334;SDS011;5722;42.620;23.374;2023-06-14T02:10:01;10.52;;;8.75;;
11334;SDS011;5722;42.620;23.374;2023-06-14T02:12:29;12.52;;;9.10;;
11334;SDS011;5722;42.620;23.374;2023-06-14T02:14:57;10.18;;;8.60;;
11334;SDS011;5722;42.620;23.374;2023-06-14T02:17:25;11.10;;;9.38;;
11334;SDS011;5722;42.620;23.374;2023-06-14T02:19:52;12.13;;;8.95;;
11334;SDS011;5722;42.620;23.374;2023-06-14T02:22:20;15.95;;;9.27;;
11334;SDS011;5722;42.620;23.374;2023-06-14T02:24:48;9.98;;;8.98;;
11334;SDS011;5722;42.620;23.374;2023-06-14T02:27:15;10.88;;;8.27;;
11334;SDS011;5722;42.620;23.374;2023-06-14T02:29:43;10.35;;;8.57;;
11334;SDS011;5722;42.620;23.374;2023-06-14T02:32:11;12.18;;;8.98;;
11334;SDS011;5722;42.620;23.374;2023-06-14T02:34:38;11.10;;;9.23;;
11334;SDS011;5722;42.620;23.374;2023-06-14T02:37:07;11.00;;;9.05;;
11334;SDS011;5722;42.620;23.374;2023-06-14T02:39:34;9.70;;;8.60;;
11334;SDS011;5722;42.620;23.374;2023-06-14T02:42:02;9.27;;;8.38;;
11334;SDS011;5722;42.620;23.374;2023-06-14T02:44:29;9.48;;;8.48;;
11334;SDS011;5722;42.620;23.374;2023-06-14T02:46:57;9.43;;;8.13;;
11334;SDS011;5722;42.620;23.374;2023-06-14T02:49:27;9.35;;;7.97;;
11334;SDS011;5722;42.620;23.374;2023-06-14T02:52:00;11.32;;;7.95;;
11334;SDS011;5722;42.620;23.374;2023-06-14T02:54:30;11.27;;;8.63;;
11334;SDS011;5722;42.620;23.374;2023-06-14T02:57:07;9.85;;;8.20;;
11334;SDS011;5722;42.620;23.374;2023-06-14T02:59:35;9.35;;;8.23;;
11334;SDS011;5722;42.620;23.374;2023-06-14T03:02:03;10.52;;;8.88;;
11334;SDS011;5722;42.620;23.374;2023-06-14T03:04:34;10.07;;;8.38;;
11334;SDS011;5722;42.620;23.374;2023-06-14T03:07:03;9.50;;;8.48;;
11334;SDS011;5722;42.620;23.374;2023-06-14T03:09:35;10.32;;;8.48;;
11334;SDS011;5722;42.620;23.374;2023-06-14T03:12:06;11.05;;;8.95;;
11334;SDS011;5722;42.620;23.374;2023-06-14T03:14:34;9.32;;;8.27;;
11334;SDS011;5722;42.620;23.374;2023-06-14T03:17:02;9.95;;;9.05;;
11334;SDS011;5722;42.620;23.374;2023-06-14T03:19:38;10.80;;;8.50;;
11334;SDS011;5722;42.620;23.374;2023-06-14T03:24:57;10.43;;;8.60;;
11334;SDS011;5722;42.620;23.374;2023-06-14T03:27:27;10.13;;;8.00;;
11334;SDS011;5722;42.620;23.374;2023-06-14T03:30:00;9.35;;;8.38;;
11334;SDS011;5722;42.620;23.374;2023-06-14T03:32:28;9.23;;;7.72;;
11334;SDS011;5722;42.620;23.374;2023-06-14T03:35:00;9.70;;;8.57;;
11334;SDS011;5722;42.620;23.374;2023-06-14T03:37:27;9.05;;;8.15;;
11334;SDS011;5722;42.620;23.374;2023-06-14T03:39:54;10.00;;;7.60;;
11334;SDS011;5722;42.620;23.374;2023-06-14T03:42:22;11.38;;;8.77;;
11334;SDS011;5722;42.620;23.374;2023-06-14T03:44:50;9.38;;;8.48;;
11334;SDS011;5722;42.620;23.374;2023-06-14T03:47:27;9.07;;;8.23;;
11334;SDS011;5722;42.620;23.374;2023-06-14T03:49:54;8.60;;;7.55;;
11334;SDS011;5722;42.620;23.374;2023-06-14T03:52:23;8.73;;;7.90;;
11334;SDS011;5722;42.620;23.374;2023-06-14T03:54:50;8.90;;;7.93;;
11334;SDS011;5722;42.620;23.374;2023-06-14T03:57:18;8.30;;;7.28;;
11334;SDS011;5722;42.620;23.374;2023-06-14T03:59:45;9.15;;;7.65;;
11334;SDS011;5722;42.620;23.374;2023-06-14T04:02:26;9.73;;;7.82;;
11334;SDS011;5722;42.620;23.374;2023-06-14T04:04:54;9.02;;;8.20;;
11334;SDS011;5722;42.620;23.374;2023-06-14T04:07:24;12.23;;;8.20;;
11334;SDS011;5722;42.620;23.374;2023-06-14T04:09:53;10.65;;;8.40;;
11334;SDS011;5722;42.620;23.374;2023-06-14T04:12:22;8.73;;;7.88;;
11334;SDS011;5722;42.620;23.374;2023-06-14T04:14:49;8.85;;;7.95;;
11334;SDS011;5722;42.620;23.374;2023-06-14T04:17:17;9.20;;;7.93;;
11334;SDS011;5722;42.620;23.374;2023-06-14T04:19:44;9.27;;;8.10;;
11334;SDS011;5722;42.620;23.374;2023-06-14T04:22:12;10.45;;;8.48;;
11334;SDS011;5722;42.620;23.374;2023-06-14T04:24:43;11.25;;;8.70;;
11334;SDS011;5722;42.620;23.374;2023-06-14T04:27:11;9.32;;;8.25;;
11334;SDS011;5722;42.620;23.374;2023-06-14T04:29:40;12.13;;;8.80;;
11334;SDS011;5722;42.620;23.374;2023-06-14T04:32:08;9.63;;;8.70;;
11334;SDS011;5722;42.620;23.374;2023-06-14T04:34:38;12.57;;;9.30;;
11334;SDS011;5722;42.620;23.374;2023-06-14T04:37:06;10.13;;;8.90;;
11334;SDS011;5722;42.620;23.374;2023-06-14T04:39:35;12.20;;;9.45;;
11334;SDS011;5722;42.620;23.374;2023-06-14T04:42:04;11.32;;;9.40;;
11334;SDS011;5722;42.620;23.374;2023-06-14T04:44:32;12.00;;;9.45;;
11334;SDS011;5722;42.620;23.374;2023-06-14T04:46:59;11.38;;;9.88;;
11334;SDS011;5722;42.620;23.374;2023-06-14T04:49:27;10.23;;;9.10;;
11334;SDS011;5722;42.620;23.374;2023-06-14T04:51:56;12.48;;;9.27;;
11334;SDS011;5722;42.620;23.374;2023-06-14T04:54:28;11.35;;;9.35;;
11334;SDS011;5722;42.620;23.374;2023-06-14T04:56:56;10.70;;;9.57;;
11334;SDS011;5722;42.620;23.374;2023-06-14T04:59:26;10.65;;;9.57;;
11334;SDS011;5722;42.620;23.374;2023-06-14T05:01:53;11.50;;;9.80;;
11334;SDS011;5722;42.620;23.374;2023-06-14T05:04:22;10.10;;;9.15;;
11334;SDS011;5722;42.620;23.374;2023-06-14T05:06:52;11.25;;;9.98;;
11334;SDS011;5722;42.620;23.374;2023-06-14T05:09:19;10.95;;;9.90;;
11334;SDS011;5722;42.620;23.374;2023-06-14T05:11:49;12.27;;;10.15;;
11334;SDS011;5722;42.620;23.374;2023-06-14T05:14:16;10.68;;;9.55;;
11334;SDS011;5722;42.620;23.374;2023-06-14T05:16:45;10.43;;;9.43;;
11334;SDS011;5722;42.620;23.374;2023-06-14T05:19:14;14.23;;;10.27;;
11334;SDS011;5722;42.620;23.374;2023-06-14T05:21:45;11.18;;;10.18;;
11334;SDS011;5722;42.620;23.374;2023-06-14T05:24:19;11.13;;;10.10;;
11334;SDS011;5722;42.620;23.374;2023-06-14T05:26:48;13.93;;;10.88;;
11334;SDS011;5722;42.620;23.374;2023-06-14T05:29:17;12.15;;;10.93;;
11334;SDS011;5722;42.620;23.374;2023-06-14T05:31:51;14.52;;;10.88;;
11334;SDS011;5722;42.620;23.374;2023-06-14T05:34:28;11.88;;;10.55;;
11334;SDS011;5722;42.620;23.374;2023-06-14T05:36:57;12.43;;;10.80;;
11334;SDS011;5722;42.620;23.374;2023-06-14T05:39:34;11.70;;;10.13;;
11334;SDS011;5722;42.620;23.374;2023-06-14T05:42:13;11.90;;;10.73;;
11334;SDS011;5722;42.620;23.374;2023-06-14T05:44:42;15.13;;;11.02;;
11334;SDS011;5722;42.620;23.374;2023-06-14T05:47:20;14.82;;;12.05;;
11334;SDS011;5722;42.620;23.374;2023-06-14T05:49:47;14.88;;;11.15;;
11334;SDS011;5722;42.620;23.374;2023-06-14T05:52:18;16.17;;;10.95;;
11334;SDS011;5722;42.620;23.374;2023-06-14T05:54:47;13.10;;;11.43;;
11334;SDS011;5722;42.620;23.374;2023-06-14T05:57:23;16.50;;;11.27;;
11334;SDS011;5722;42.620;23.374;2023-06-14T05:59:51;13.57;;;11.02;;
11334;SDS011;5722;42.620;23.374;2023-06-14T06:08:05;13.40;;;11.82;;
11334;SDS011;5722;42.620;23.374;2023-06-14T06:10:47;12.75;;;11.43;;
11334;SDS011;5722;42.620;23.374;2023-06-14T06:13:20;14.82;;;13.27;;
11334;SDS011;5722;42.620;23.374;2023-06-14T06:15:48;14.07;;;12.52;;
11334;SDS011;5722;42.620;23.374;2023-06-14T06:18:25;14.73;;;13.23;;
11334;SDS011;5722;42.620;23.374;2023-06-14T06:23:43;17.42;;;14.48;;
11334;SDS011;5722;42.620;23.374;2023-06-14T06:26:15;21.45;;;19.15;;
11334;SDS011;5722;42.620;23.374;2023-06-14T06:29:07;21.45;;;18.95;;
11334;SDS011;5722;42.620;23.374;2023-06-14T06:31:46;17.35;;;15.32;;
11334;SDS011;5722;42.620;23.374;2023-06-14T06:34:26;17.75;;;15.02;;
11334;SDS011;5722;42.620;23.374;2023-06-14T06:37:01;20.40;;;14.88;;
11334;SDS011;5722;42.620;23.374;2023-06-14T06:45:13;19.10;;;14.60;;
11334;SDS011;5722;42.620;23.374;2023-06-14T06:47:43;16.77;;;14.30;;
11334;SDS011;5722;42.620;23.374;2023-06-14T06:50:22;15.63;;;14.02;;
11334;SDS011;5722;42.620;23.374;2023-06-14T06:55:37;19.30;;;16.42;;
11334;SDS011;5722;42.620;23.374;2023-06-14T06:58:32;17.73;;;15.90;;
11334;SDS011;5722;42.620;23.374;2023-06-14T07:01:10;19.73;;;15.30;;
11334;SDS011;5722;42.620;23.374;2023-06-14T07:03:41;17.20;;;15.50;;
11334;SDS011;5722;42.620;23.374;2023-06-14T07:06:30;17.35;;;12.93;;
11334;SDS011;5722;42.620;23.374;2023-06-14T07:11:55;16.92;;;12.60;;
11334;SDS011;5722;42.620;23.374;2023-06-14T07:14:24;17.13;;;12.40;;
11334;SDS011;5722;42.620;23.374;2023-06-14T07:17:02;15.93;;;13.13;;
11334;SDS011;5722;42.620;23.374;2023-06-14T07:19:37;14.10;;;12.70;;
11334;SDS011;5722;42.620;23.374;2023-06-14T07:35:48;13.98;;;12.48;;
11334;SDS011;5722;42.620;23.374;2023-06-14T07:38:16;14.15;;;12.75;;
11334;SDS011;5722;42.620;23.374;2023-06-14T07:40:57;14.13;;;12.73;;
11334;SDS011;5722;42.620;23.374;2023-06-14T07:43:30;14.07;;;11.57;;
11334;SDS011;5722;42.620;23.374;2023-06-14T07:46:29;13.88;;;11.35;;
11334;SDS011;5722;42.620;23.374;2023-06-14T07:54:41;13.80;;;11.60;;
11334;SDS011;5722;42.620;23.374;2023-06-14T07:57:29;18.67;;;13.75;;
11334;SDS011;5722;42.620;23.374;2023-06-14T08:00:36;14.02;;;12.13;;
11334;SDS011;5722;42.620;23.374;2023-06-14T08:03:05;13.57;;;12.32;;
11334;SDS011;5722;42.620;23.374;2023-06-14T08:08:26;13.50;;;12.20;;
11334;SDS011;5722;42.620;23.374;2023-06-14T08:10:56;15.60;;;13.80;;
11334;SDS011;5722;42.620;23.374;2023-06-14T08:13:28;15.02;;;13.27;;
11334;SDS011;5722;42.620;23.374;2023-06-14T08:15:58;13.73;;;12.43;;
11334;SDS011;5722;42.620;23.374;2023-06-14T08:18:34;13.45;;;12.15;;
11334;SDS011;5722;42.620;23.374;2023-06-14T08:23:50;14.32;;;12.18;;
11334;SDS011;5722;42.620;23.374;2023-06-14T08:29:12;14.13;;;12.63;;
11334;SDS011;5722;42.620;23.374;2023-06-14T08:34:17;13.15;;;11.93;;
11334;SDS011;5722;42.620;23.374;2023-06-14T08:39:30;15.00;;;10.90;;
11334;SDS011;5722;42.620;23.374;2023-06-14T08:42:05;11.20;;;10.13;;
11334;SDS011;5722;42.620;23.374;2023-06-14T08:44:35;11.25;;;10.25;;
11334;SDS011;5722;42.620;23.374;2023-06-14T08:47:06;11.27;;;10.02;;
11334;SDS011;5722;42.620;23.374;2023-06-14T08:49:46;14.15;;;10.45;;
11334;SDS011;5722;42.620;23.374;2023-06-14T08:55:12;11.63;;;10.45;;
11334;SDS011;5722;42.620;23.374;2023-06-14T08:57:41;10.93;;;9.82;;
11334;SDS011;5722;42.620;23.374;2023-06-14T09:00:27;11.40;;;10.30;;
11334;SDS011;5722;42.620;23.374;2023-06-14T09:02:56;19.00;;;11.88;;
11334;SDS011;5722;42.620;23.374;2023-06-14T09:05:29;13.40;;;11.27;;
11334;SDS011;5722;42.620;23.374;2023-06-14T09:08:21;11.93;;;10.82;;
11334;SDS011;5722;42.620;23.374;2023-06-14T09:10:52;11.30;;;10.27;;
11334;SDS011;5722;42.620;23.374;2023-06-14T09:13:30;12.38;;;10.85;;
11334;SDS011;5722;42.620;23.374;2023-06-14T09:18:49;11.65;;;10.43;;
11334;SDS011;5722;42.620;23.374;2023-06-14T09:21:42;11.68;;;10.50;;
11334;SDS011;5722;42.620;23.374;2023-06-14T09:27:24;12.40;;;11.02;;
11334;SDS011;5722;42.620;23.374;2023-06-14T09:32:54;12.30;;;10.80;;
11334;SDS011;5722;42.620;23.374;2023-06-14T09:35:23;11.85;;;10.70;;
11334;SDS011;5722;42.620;23.374;2023-06-14T09:38:02;10.93;;;9.82;;
11334;SDS011;5722;42.620;23.374;2023-06-14T09:43:43;10.65;;;9.60;;
11334;SDS011;5722;42.620;23.374;2023-06-14T09:46:33;11.75;;;10.65;;
11334;SDS011;5722;42.620;23.374;2023-06-14T09:49:25;15.20;;;10.27;;
11334;SDS011;5722;42.620;23.374;2023-06-14T09:52:04;10.68;;;9.68;;
11334;SDS011;5722;42.620;23.374;2023-06-14T09:54:53;14.13;;;11.13;;
11334;SDS011;5722;42.620;23.374;2023-06-14T10:00:16;12.63;;;11.32;;
11334;SDS011;5722;42.620;23.374;2023-06-14T10:02:54;12.07;;;11.05;;
11334;SDS011;5722;42.620;23.374;2023-06-14T10:05:35;11.25;;;10.02;;
11334;SDS011;5722;42.620;23.374;2023-06-14T10:08:27;11.35;;;10.25;;
11334;SDS011;5722;42.620;23.374;2023-06-14T10:11:02;12.35;;;10.98;;
11334;SDS011;5722;42.620;23.374;2023-06-14T10:22:29;12.70;;;11.40;;
11334;SDS011;5722;42.620;23.374;2023-06-14T10:25:12;11.93;;;10.43;;
11334;SDS011;5722;42.620;23.374;2023-06-14T10:37:18;17.63;;;10.15;;
11334;SDS011;5722;42.620;23.374;2023-06-14T10:40:15;12.57;;;11.23;;
11334;SDS011;5722;42.620;23.374;2023-06-14T10:49:00;9.60;;;8.70;;
11334;SDS011;5722;42.620;23.374;2023-06-14T10:54:32;10.60;;;9.70;;
11334;SDS011;5722;42.620;23.374;2023-06-14T10:57:06;10.90;;;9.93;;
11334;SDS011;5722;42.620;23.374;2023-06-14T10:59:49;9.48;;;8.68;;
11334;SDS011;5722;42.620;23.374;2023-06-14T11:05:27;9.15;;;8.25;;
11334;SDS011;5722;42.620;23.374;2023-06-14T11:14:05;10.10;;;8.55;;
11334;SDS011;5722;42.620;23.374;2023-06-14T11:16:34;9.38;;;8.50;;
11334;SDS011;5722;42.620;23.374;2023-06-14T11:19:19;8.40;;;7.60;;
11334;SDS011;5722;42.620;23.374;2023-06-14T11:21:51;7.38;;;6.78;;
11334;SDS011;5722;42.620;23.374;2023-06-14T11:24:25;7.63;;;6.82;;
11334;SDS011;5722;42.620;23.374;2023-06-14T11:26:57;7.20;;;6.60;;
11334;SDS011;5722;42.620;23.374;2023-06-14T11:29:34;6.82;;;6.22;;
11334;SDS011;5722;42.620;23.374;2023-06-14T11:32:09;6.72;;;6.03;;
11334;SDS011;5722;42.620;23.374;2023-06-14T11:34:41;6.90;;;6.35;;
11334;SDS011;5722;42.620;23.374;2023-06-14T11:37:29;6.30;;;5.75;;
11334;SDS011;5722;42.620;23.374;2023-06-14T11:42:59;6.10;;;5.57;;
11334;SDS011;5722;42.620;23.374;2023-06-14T11:45:38;5.55;;;5.13;;
11334;SDS011;5722;42.620;23.374;2023-06-14T11:48:07;6.65;;;5.70;;
11334;SDS011;5722;42.620;23.374;2023-06-14T11:50:42;8.15;;;5.30;;
11334;SDS011;5722;42.620;23.374;2023-06-14T11:53:20;5.90;;;5.43;;
11334;SDS011;5722;42.620;23.374;2023-06-14T11:58:53;6.88;;;5.65;;
11334;SDS011;5722;42.620;23.374;2023-06-14T12:01:38;5.50;;;5.10;;
11334;SDS011;5722;42.620;23.374;2023-06-14T12:04:31;6.47;;;5.90;;
11334;SDS011;5722;42.620;23.374;2023-06-14T12:07:27;6.18;;;5.30;;
11334;SDS011;5722;42.620;23.374;2023-06-14T12:10:42;6.53;;;5.72;;
11334;SDS011;5722;42.620;23.374;2023-06-14T12:13:58;6.05;;;5.47;;
11334;SDS011;5722;42.620;23.374;2023-06-14T12:16:33;6.00;;;5.40;;
11334;SDS011;5722;42.620;23.374;2023-06-14T12:19:13;6.20;;;5.60;;
11334;SDS011;5722;42.620;23.374;2023-06-14T12:21:43;8.30;;;6.07;;
11334;SDS011;5722;42.620;23.374;2023-06-14T12:24:32;7.57;;;6.20;;
11334;SDS011;5722;42.620;23.374;2023-06-14T12:27:18;6.53;;;5.95;;
11334;SDS011;5722;42.620;23.374;2023-06-14T12:33:09;5.95;;;5.35;;
11334;SDS011;5722;42.620;23.374;2023-06-14T12:35:37;9.75;;;6.15;;
11334;SDS011;5722;42.620;23.374;2023-06-14T12:38:05;7.55;;;5.90;;
11334;SDS011;5722;42.620;23.374;2023-06-14T12:40:46;6.22;;;5.63;;
11334;SDS011;5722;42.620;23.374;2023-06-14T12:43:37;6.57;;;5.47;;
11334;SDS011;5722;42.620;23.374;2023-06-14T12:46:09;6.20;;;5.60;;
11334;SDS011;5722;42.620;23.374;2023-06-14T12:51:56;6.68;;;5.88;;
11334;SDS011;5722;42.620;23.374;2023-06-14T12:54:31;6.35;;;5.85;;
11334;SDS011;5722;42.620;23.374;2023-06-14T12:57:06;7.18;;;6.47;;
11334;SDS011;5722;42.620;23.374;2023-06-14T12:59:35;6.13;;;5.55;;
11334;SDS011;5722;42.620;23.374;2023-06-14T13:02:13;9.57;;;6.13;;
11334;SDS011;5722;42.620;23.374;2023-06-14T13:05:01;7.00;;;6.30;;
11334;SDS011;5722;42.620;23.374;2023-06-14T13:07:37;7.22;;;6.55;;
11334;SDS011;5722;42.620;23.374;2023-06-14T13:10:10;9.05;;;7.15;;
11334;SDS011;5722;42.620;23.374;2023-06-14T13:12:40;8.10;;;6.97;;
11334;SDS011;5722;42.620;23.374;2023-06-14T13:15:14;8.85;;;7.38;;
11334;SDS011;5722;42.620;23.374;2023-06-14T13:17:44;7.82;;;6.13;;
11334;SDS011;5722;42.620;23.374;2023-06-14T13:20:28;7.95;;;6.50;;
11334;SDS011;5722;42.620;23.374;2023-06-14T13:23:00;7.63;;;6.75;;
11334;SDS011;5722;42.620;23.374;2023-06-14T13:25:43;9.70;;;7.10;;
11334;SDS011;5722;42.620;23.374;2023-06-14T13:28:11;12.60;;;7.57;;
11334;SDS011;5722;42.620;23.374;2023-06-14T13:30:45;7.90;;;7.07;;
11334;SDS011;5722;42.620;23.374;2023-06-14T13:33:21;8.20;;;7.43;;
11334;SDS011;5722;42.620;23.374;2023-06-14T13:38:58;9.23;;;7.75;;
11334;SDS011;5722;42.620;23.374;2023-06-14T13:41:39;9.70;;;7.97;;
11334;SDS011;5722;42.620;23.374;2023-06-14T13:50:16;7.80;;;6.85;;
11334;SDS011;5722;42.620;23.374;2023-06-14T14:09:39;7.90;;;7.20;;
11334;SDS011;5722;42.620;23.374;2023-06-14T14:15:37;6.40;;;5.82;;
11334;SDS011;5722;42.620;23.374;2023-06-14T14:27:32;7.32;;;6.60;;
11334;SDS011;5722;42.620;23.374;2023-06-14T14:30:07;7.50;;;6.80;;
11334;SDS011;5722;42.620;23.374;2023-06-14T15:37:47;11.00;;;10.00;;
11334;SDS011;5722;42.620;23.374;2023-06-14T15:47:12;9.15;;;8.35;;
11334;SDS011;5722;42.620;23.374;2023-06-14T16:26:25;10.85;;;9.65;;
11334;SDS011;5722;42.620;23.374;2023-06-14T16:32:18;10.48;;;9.40;;
11334;SDS011;5722;42.620;23.374;2023-06-14T16:37:30;10.48;;;9.48;;
11334;SDS011;5722;42.620;23.374;2023-06-14T16:43:05;12.48;;;10.93;;
11334;SDS011;5722;42.620;23.374;2023-06-14T16:45:52;12.60;;;11.30;;
11334;SDS011;5722;42.620;23.374;2023-06-14T16:48:25;13.00;;;11.35;;
11334;SDS011;5722;42.620;23.374;2023-06-14T16:51:13;11.52;;;10.35;;
11334;SDS011;5722;42.620;23.374;2023-06-14T16:54:33;12.55;;;10.20;;
11334;SDS011;5722;42.620;23.374;2023-06-14T17:03:05;11.10;;;8.73;;
11334;SDS011;5722;42.620;23.374;2023-06-14T17:08:36;11.80;;;9.23;;
11334;SDS011;5722;42.620;23.374;2023-06-14T17:14:37;9.32;;;8.43;;
11334;SDS011;5722;42.620;23.374;2023-06-14T17:17:06;11.75;;;9.15;;
11334;SDS011;5722;42.620;23.374;2023-06-14T17:19:41;9.93;;;8.88;;
11334;SDS011;5722;42.620;23.374;2023-06-14T17:22:33;10.18;;;8.55;;
11334;SDS011;5722;42.620;23.374;2023-06-14T17:25:17;10.18;;;9.20;;
11334;SDS011;5722;42.620;23.374;2023-06-14T17:27:55;10.38;;;9.32;;
11334;SDS011;5722;42.620;23.374;2023-06-14T17:30:26;7.85;;;6.78;;
11334;SDS011;5722;42.620;23.374;2023-06-14T17:32:56;7.00;;;6.30;;
11334;SDS011;5722;42.620;23.374;2023-06-14T17:35:29;7.75;;;6.97;;
11334;SDS011;5722;42.620;23.374;2023-06-14T17:38:01;15.52;;;11.60;;
11334;SDS011;5722;42.620;23.374;2023-06-14T17:40:42;10.65;;;8.82;;
11334;SDS011;5722;42.620;23.374;2023-06-14T17:43:16;10.43;;;9.43;;
11334;SDS011;5722;42.620;23.374;2023-06-14T17:48:33;10.95;;;9.85;;
11334;SDS011;5722;42.620;23.374;2023-06-14T18:57:35;19.95;;;13.45;;
11334;SDS011;5722;42.620;23.374;2023-06-14T19:00:03;18.92;;;13.80;;
11334;SDS011;5722;42.620;23.374;2023-06-14T19:02:44;16.15;;;13.40;;
11334;SDS011;5722;42.620;23.374;2023-06-14T19:05:13;13.57;;;12.18;;
11334;SDS011;5722;42.620;23.374;2023-06-14T19:07:51;14.15;;;12.15;;
11334;SDS011;5722;42.620;23.374;2023-06-14T19:10:23;12.95;;;11.75;;
11334;SDS011;5722;42.620;23.374;2023-06-14T19:12:52;13.88;;;12.38;;
11334;SDS011;5722;42.620;23.374;2023-06-14T19:15:22;15.38;;;12.23;;
11334;SDS011;5722;42.620;23.374;2023-06-14T19:20:31;14.00;;;12.60;;
11334;SDS011;5722;42.620;23.374;2023-06-14T19:25:58;13.85;;;11.80;;
11334;SDS011;5722;42.620;23.374;2023-06-14T19:28:35;13.85;;;10.85;;
11334;SDS011;5722;42.620;23.374;2023-06-14T21:16:13;13.35;;;8.95;;
11334;SDS011;5722;42.620;23.374;2023-06-14T21:22:03;21.25;;;10.18;;
11334;SDS011;5722;42.620;23.374;2023-06-14T21:24:35;16.70;;;11.07;;
11334;SDS011;5722;42.620;23.374;2023-06-14T21:27:07;39.63;;;12.02;;
11334;SDS011;5722;42.620;23.374;2023-06-14T21:29:36;46.58;;;12.57;;
11334;SDS011;5722;42.620;23.374;2023-06-14T21:32:08;23.45;;;11.35;;
11334;SDS011;5722;42.620;23.374;2023-06-14T21:41:58;15.82;;;9.38;;
11334;SDS011;5722;42.620;23.374;2023-06-14T21:44:32;12.13;;;8.93;;
11334;SDS011;5722;42.620;23.374;2023-06-14T21:47:00;14.32;;;8.95;;
11334;SDS011;5722;42.620;23.374;2023-06-14T21:52:34;12.00;;;8.52;;
11334;SDS011;5722;42.620;23.374;2023-06-14T21:58:11;10.20;;;7.22;;
11334;SDS011;5722;42.620;23.374;2023-06-14T22:00:41;10.55;;;7.88;;
11334;SDS011;5722;42.620;23.374;2023-06-14T22:03:17;10.30;;;7.30;;
11334;SDS011;5722;42.620;23.374;2023-06-14T22:05:51;13.65;;;7.93;;
11334;SDS011;5722;42.620;23.374;2023-06-14T22:08:27;10.15;;;7.65;;
11334;SDS011;5722;42.620;23.374;2023-06-14T22:11:01;9.00;;;7.30;;
11334;SDS011;5722;42.620;23.374;2023-06-14T22:13:34;10.63;;;7.28;;
11334;SDS011;5722;42.620;23.374;2023-06-14T22:16:03;9.20;;;7.50;;
11334;SDS011;5722;42.620;23.374;2023-06-14T22:18:34;9.75;;;7.35;;
11334;SDS011;5722;42.620;23.374;2023-06-14T22:21:05;7.85;;;6.88;;
11334;SDS011;5722;42.620;23.374;2023-06-14T22:23:50;9.10;;;7.47;;
11334;SDS011;5722;42.620;23.374;2023-06-14T22:26:33;14.77;;;8.38;;
11334;SDS011;5722;42.620;23.374;2023-06-14T22:29:19;14.07;;;9.95;;
11334;SDS011;5722;42.620;23.374;2023-06-14T22:31:54;12.55;;;9.90;;
11334;SDS011;5722;42.620;23.374;2023-06-14T22:34:25;13.10;;;10.05;;
11334;SDS011;5722;42.620;23.374;2023-06-14T22:37:13;11.93;;;10.00;;
11334;SDS011;5722;42.620;23.374;2023-06-14T22:39:45;16.60;;;11.20;;
11334;SDS011;5722;42.620;23.374;2023-06-14T22:42:13;14.27;;;10.50;;
11334;SDS011;5722;42.620;23.374;2023-06-14T22:44:45;13.27;;;11.02;;
11334;SDS011;5722;42.620;23.374;2023-06-14T22:47:17;13.73;;;10.18;;
11334;SDS011;5722;42.620;23.374;2023-06-14T22:49:52;14.35;;;10.50;;
11334;SDS011;5722;42.620;23.374;2023-06-14T22:52:27;12.73;;;10.57;;
11334;SDS011;5722;42.620;23.374;2023-06-14T22:55:09;14.55;;;10.88;;
11334;SDS011;5722;42.620;23.374;2023-06-14T22:57:43;13.98;;;10.52;;
11334;SDS011;5722;42.620;23.374;2023-06-14T23:00:14;13.25;;;10.43;;
11334;SDS011;5722;42.620;23.374;2023-06-14T23:02:43;13.55;;;10.95;;
11334;SDS011;5722;42.620;23.374;2023-06-14T23:05:11;13.50;;;11.15;;
11334;SDS011;5722;42.620;23.374;2023-06-14T23:07:46;14.77;;;11.30;;
11334;SDS011;5722;42.620;23.374;2023-06-14T23:10:13;14.45;;;10.70;;
11334;SDS011;5722;42.620;23.374;2023-06-14T23:12:49;14.23;;;11.02;;
11334;SDS011;5722;42.620;23.374;2023-06-14T23:15:21;13.93;;;10.57;;
11334;SDS011;5722;42.620;23.374;2023-06-14T23:17:55;13.77;;;10.65;;